ITY1271 LIRF-LIRN
Flight info
| Callsign | ITY1271 |
|---|---|
| Flight time | 0h 29m |
| Altitude | 19000 |
| Route | RIFFI M729 PNZ |
| Aircraft | A320/M-SDE3FGHIRWY/LB1 |
Departure
| Time | 2026-02-17 12:00 |
|---|---|
| Airport | Rome–Fiumicino Leonardo da Vinci International Airport (LIRF) |
Arrival
| Time | 2026-02-17 12:30 |
|---|---|
| Airport | Naples International Airport (LIRN) |
| Time | Latitude | Longitude | Altitude | Speed | Heading |
|---|---|---|---|---|---|
| 2026-02-17 11:34 | 41.79726 | 12.25641 | 16 ft | 0 kts | 295° |
| 2026-02-17 11:34 | 41.79727 | 12.25639 | 16 ft | 0 kts | 295° |
| 2026-02-17 11:48 | 41.79722 | 12.25654 | 15 ft | 3 kts | 295° |
| 2026-02-17 11:48 | 41.79714 | 12.25677 | 16 ft | 3 kts | 302° |
| 2026-02-17 11:48 | 41.79702 | 12.25694 | 15 ft | 3 kts | 347° |
| 2026-02-17 11:48 | 41.79684 | 12.25694 | 14 ft | 2 kts | 22° |
| 2026-02-17 11:49 | 41.79678 | 12.25690 | 14 ft | 0 kts | 25° |
| 2026-02-17 11:49 | 41.79691 | 12.25698 | 14 ft | 3 kts | 25° |
| 2026-02-17 11:49 | 41.79709 | 12.25710 | 14 ft | 3 kts | 25° |
| 2026-02-17 11:49 | 41.79728 | 12.25722 | 15 ft | 3 kts | 25° |
| 2026-02-17 11:50 | 41.79746 | 12.25733 | 16 ft | 3 kts | 25° |
| 2026-02-17 11:50 | 41.79764 | 12.25745 | 15 ft | 3 kts | 25° |
| 2026-02-17 11:50 | 41.79783 | 12.25756 | 15 ft | 3 kts | 25° |
| 2026-02-17 11:51 | 41.79796 | 12.25764 | 14 ft | 0 kts | 25° |
| 2026-02-17 11:54 | 41.79798 | 12.25765 | 16 ft | 3 kts | 25° |
| 2026-02-17 11:54 | 41.79847 | 12.25802 | 14 ft | 9 kts | 37° |
| 2026-02-17 11:54 | 41.79897 | 12.25838 | 15 ft | 7 kts | 25° |
| 2026-02-17 11:55 | 41.80117 | 12.25973 | 14 ft | 25 kts | 24° |
| 2026-02-17 11:55 | 41.80277 | 12.26072 | 14 ft | 26 kts | 24° |
| 2026-02-17 11:55 | 41.80426 | 12.26162 | 16 ft | 15 kts | 24° |
| 2026-02-17 11:55 | 41.80527 | 12.26163 | 17 ft | 16 kts | 343° |
| 2026-02-17 11:56 | 41.80605 | 12.26131 | 16 ft | 5 kts | 342° |
| 2026-02-17 11:56 | 41.80606 | 12.26130 | 16 ft | 0 kts | 342° |
| 2026-02-17 11:57 | 41.80607 | 12.26130 | 16 ft | 1 kts | 342° |
| 2026-02-17 11:57 | 41.80689 | 12.26095 | 18 ft | 18 kts | 343° |
| 2026-02-17 11:57 | 41.80717 | 12.26085 | 19 ft | 2 kts | 343° |
| 2026-02-17 11:57 | 41.80723 | 12.26072 | 19 ft | 4 kts | 290° |
| 2026-02-17 11:58 | 41.80718 | 12.26053 | 19 ft | 0 kts | 249° |
| 2026-02-17 11:59 | 41.80717 | 12.26051 | 19 ft | 1 kts | 249° |
| 2026-02-17 11:59 | 41.80710 | 12.26025 | 18 ft | 14 kts | 249° |
| 2026-02-17 12:00 | 41.80581 | 12.25559 | 16 ft | 89 kts | 249° |
| 2026-02-17 12:00 | 41.80295 | 12.24523 | 14 ft | 146 kts | 250° |
| 2026-02-17 12:00 | 41.79912 | 12.23149 | 431 ft | 157 kts | 252° |
| 2026-02-17 12:00 | 41.79518 | 12.21782 | 1157 ft | 158 kts | 250° |
| 2026-02-17 12:01 | 41.78885 | 12.20559 | 1849 ft | 164 kts | 229° |
| 2026-02-17 12:01 | 41.77974 | 12.19506 | 2258 ft | 184 kts | 224° |
| 2026-02-17 12:01 | 41.76938 | 12.18336 | 2589 ft | 206 kts | 222° |
| 2026-02-17 12:01 | 41.75816 | 12.17084 | 3215 ft | 212 kts | 221° |
| 2026-02-17 12:02 | 41.74613 | 12.15877 | 3844 ft | 224 kts | 217° |
| 2026-02-17 12:02 | 41.73304 | 12.14663 | 4532 ft | 231 kts | 216° |
| 2026-02-17 12:02 | 41.71959 | 12.13438 | 5264 ft | 236 kts | 216° |
| 2026-02-17 12:03 | 41.69177 | 12.10902 | 6676 ft | 248 kts | 217° |
| 2026-02-17 12:03 | 41.67741 | 12.09587 | 7396 ft | 252 kts | 217° |
| 2026-02-17 12:03 | 41.66279 | 12.08243 | 8108 ft | 257 kts | 217° |
| 2026-02-17 12:03 | 41.64794 | 12.06880 | 8806 ft | 262 kts | 218° |
| 2026-02-17 12:04 | 41.63280 | 12.05491 | 9494 ft | 267 kts | 218° |
| 2026-02-17 12:04 | 41.61728 | 12.04105 | 10219 ft | 271 kts | 211° |
| 2026-02-17 12:04 | 41.59911 | 12.03533 | 11072 ft | 273 kts | 176° |
| 2026-02-17 12:04 | 41.58081 | 12.04318 | 11577 ft | 288 kts | 147° |
| 2026-02-17 12:05 | 41.56513 | 12.06118 | 11845 ft | 308 kts | 128° |
| 2026-02-17 12:05 | 41.55062 | 12.08363 | 12085 ft | 332 kts | 129° |
| 2026-02-17 12:05 | 41.53461 | 12.10670 | 12305 ft | 354 kts | 131° |
| 2026-02-17 12:05 | 41.51717 | 12.13073 | 12784 ft | 365 kts | 133° |
| 2026-02-17 12:06 | 41.49915 | 12.15510 | 13410 ft | 372 kts | 133° |
| 2026-02-17 12:06 | 41.48081 | 12.17982 | 14054 ft | 377 kts | 133° |
| 2026-02-17 12:06 | 41.46234 | 12.20488 | 14705 ft | 381 kts | 133° |
| 2026-02-17 12:07 | 41.42499 | 12.25616 | 15918 ft | 390 kts | 132° |
| 2026-02-17 12:07 | 41.40610 | 12.28235 | 16520 ft | 395 kts | 132° |
| 2026-02-17 12:07 | 41.38671 | 12.30921 | 17108 ft | 399 kts | 132° |
| 2026-02-17 12:07 | 41.36736 | 12.33595 | 17673 ft | 403 kts | 133° |
| 2026-02-17 12:08 | 41.34778 | 12.36296 | 18223 ft | 408 kts | 133° |
| 2026-02-17 12:08 | 41.32796 | 12.39024 | 18657 ft | 413 kts | 133° |
| 2026-02-17 12:08 | 41.30793 | 12.41778 | 18777 ft | 415 kts | 133° |
| 2026-02-17 12:08 | 41.28782 | 12.44539 | 18795 ft | 416 kts | 133° |
| 2026-02-17 12:09 | 41.26764 | 12.47302 | 18784 ft | 417 kts | 133° |
| 2026-02-17 12:09 | 41.24742 | 12.50065 | 18783 ft | 417 kts | 133° |
| 2026-02-17 12:09 | 41.22722 | 12.52827 | 18785 ft | 417 kts | 133° |
| 2026-02-17 12:09 | 41.20704 | 12.55589 | 18785 ft | 417 kts | 133° |
| 2026-02-17 12:10 | 41.18685 | 12.58351 | 18785 ft | 417 kts | 133° |
| 2026-02-17 12:10 | 41.16666 | 12.61113 | 18784 ft | 417 kts | 133° |
| 2026-02-17 12:10 | 41.14641 | 12.63879 | 18785 ft | 418 kts | 133° |
| 2026-02-17 12:11 | 41.10586 | 12.69409 | 18786 ft | 418 kts | 133° |
| 2026-02-17 12:11 | 41.08556 | 12.72176 | 18789 ft | 418 kts | 133° |
| 2026-02-17 12:11 | 41.06528 | 12.74939 | 18786 ft | 419 kts | 133° |
| 2026-02-17 12:11 | 41.04493 | 12.77705 | 18787 ft | 419 kts | 133° |
| 2026-02-17 12:12 | 41.02462 | 12.80464 | 18785 ft | 419 kts | 133° |
| 2026-02-17 12:12 | 41.00442 | 12.83203 | 18593 ft | 411 kts | 133° |
| 2026-02-17 12:12 | 40.98465 | 12.85876 | 18344 ft | 402 kts | 133° |
| 2026-02-17 12:12 | 40.96527 | 12.88490 | 18095 ft | 394 kts | 133° |
| 2026-02-17 12:13 | 40.94616 | 12.91065 | 17665 ft | 391 kts | 133° |
| 2026-02-17 12:13 | 40.92713 | 12.93644 | 17133 ft | 392 kts | 131° |
| 2026-02-17 12:13 | 40.91062 | 12.96484 | 16628 ft | 389 kts | 119° |
| 2026-02-17 12:13 | 40.89837 | 12.99624 | 16260 ft | 381 kts | 110° |
| 2026-02-17 12:14 | 40.88762 | 13.02801 | 15875 ft | 377 kts | 110° |
| 2026-02-17 12:14 | 40.87680 | 13.05942 | 15493 ft | 374 kts | 111° |
| 2026-02-17 12:14 | 40.86601 | 13.09045 | 15106 ft | 370 kts | 111° |
| 2026-02-17 12:15 | 40.84471 | 13.15173 | 14361 ft | 363 kts | 111° |
| 2026-02-17 12:15 | 40.83440 | 13.18149 | 14004 ft | 359 kts | 111° |
| 2026-02-17 12:15 | 40.82401 | 13.21136 | 13640 ft | 356 kts | 110° |
| 2026-02-17 12:15 | 40.81370 | 13.24093 | 13276 ft | 354 kts | 111° |
| 2026-02-17 12:16 | 40.80344 | 13.27029 | 12911 ft | 351 kts | 111° |
| 2026-02-17 12:16 | 40.79325 | 13.29945 | 12555 ft | 349 kts | 110° |
| 2026-02-17 12:16 | 40.78313 | 13.32841 | 12219 ft | 347 kts | 111° |
| 2026-02-17 12:16 | 40.77305 | 13.35714 | 11840 ft | 344 kts | 111° |
| 2026-02-17 12:17 | 40.76301 | 13.38575 | 11490 ft | 342 kts | 110° |
| 2026-02-17 12:17 | 40.75307 | 13.41412 | 11187 ft | 338 kts | 110° |
| 2026-02-17 12:17 | 40.74171 | 13.44070 | 11093 ft | 329 kts | 123° |
| 2026-02-17 12:17 | 40.72660 | 13.46275 | 10976 ft | 321 kts | 137° |
| 2026-02-17 12:18 | 40.70894 | 13.48013 | 10859 ft | 312 kts | 143° |
| 2026-02-17 12:18 | 40.69144 | 13.49634 | 10724 ft | 303 kts | 143° |
| 2026-02-17 12:18 | 40.67445 | 13.51211 | 10539 ft | 296 kts | 143° |
| 2026-02-17 12:19 | 40.64104 | 13.54315 | 9939 ft | 292 kts | 142° |
| 2026-02-17 12:19 | 40.62450 | 13.55856 | 9599 ft | 291 kts | 142° |
| 2026-02-17 12:19 | 40.60813 | 13.57396 | 9369 ft | 286 kts | 137° |
| 2026-02-17 12:19 | 40.59520 | 13.59306 | 9246 ft | 276 kts | 114° |
| 2026-02-17 12:20 | 40.58883 | 13.61613 | 9126 ft | 263 kts | 90° |
| 2026-02-17 12:20 | 40.58919 | 13.63947 | 9000 ft | 250 kts | 70° |
| 2026-02-17 12:20 | 40.59323 | 13.66152 | 8873 ft | 248 kts | 68° |
| 2026-02-17 12:20 | 40.59723 | 13.68324 | 8755 ft | 240 kts | 68° |
| 2026-02-17 12:21 | 40.60112 | 13.70441 | 8624 ft | 243 kts | 68° |
| 2026-02-17 12:21 | 40.60547 | 13.72726 | 8500 ft | 265 kts | 69° |
| 2026-02-17 12:21 | 40.60992 | 13.75099 | 8390 ft | 268 kts | 69° |
| 2026-02-17 12:21 | 40.61521 | 13.77437 | 8279 ft | 264 kts | 61° |
| 2026-02-17 12:22 | 40.62332 | 13.79572 | 8149 ft | 258 kts | 51° |
| 2026-02-17 12:22 | 40.63352 | 13.81498 | 8023 ft | 256 kts | 48° |
| 2026-02-17 12:22 | 40.64387 | 13.83410 | 7908 ft | 256 kts | 48° |
| 2026-02-17 12:23 | 40.66449 | 13.87236 | 7657 ft | 256 kts | 49° |
| 2026-02-17 12:23 | 40.67478 | 13.89152 | 7369 ft | 256 kts | 48° |
| 2026-02-17 12:23 | 40.68501 | 13.91062 | 6982 ft | 255 kts | 48° |
| 2026-02-17 12:23 | 40.69521 | 13.92968 | 6580 ft | 254 kts | 49° |
| 2026-02-17 12:24 | 40.70539 | 13.94869 | 6165 ft | 253 kts | 49° |
| 2026-02-17 12:24 | 40.71551 | 13.96757 | 5739 ft | 252 kts | 48° |
| 2026-02-17 12:24 | 40.72561 | 13.98642 | 5341 ft | 252 kts | 49° |
| 2026-02-17 12:24 | 40.73583 | 14.00547 | 4910 ft | 252 kts | 49° |
| 2026-02-17 12:25 | 40.74584 | 14.02413 | 4480 ft | 252 kts | 48° |
| 2026-02-17 12:25 | 40.75621 | 14.04263 | 4054 ft | 249 kts | 43° |
| 2026-02-17 12:25 | 40.76792 | 14.05926 | 3640 ft | 246 kts | 39° |
| 2026-02-17 12:25 | 40.78005 | 14.07506 | 3230 ft | 245 kts | 39° |
| 2026-02-17 12:26 | 40.79186 | 14.09094 | 2997 ft | 237 kts | 39° |
| 2026-02-17 12:26 | 40.80294 | 14.10603 | 2994 ft | 220 kts | 39° |
| 2026-02-17 12:26 | 40.81248 | 14.12101 | 2999 ft | 212 kts | 55° |
| 2026-02-17 12:27 | 40.82211 | 14.15633 | 2931 ft | 188 kts | 58° |
| 2026-02-17 12:27 | 40.82826 | 14.17048 | 2867 ft | 169 kts | 47° |
| 2026-02-17 12:27 | 40.83473 | 14.18309 | 2651 ft | 164 kts | 49° |
| 2026-02-17 12:27 | 40.84092 | 14.19505 | 2461 ft | 153 kts | 48° |
| 2026-02-17 12:28 | 40.84672 | 14.20633 | 2310 ft | 145 kts | 49° |
| 2026-02-17 12:28 | 40.85213 | 14.21687 | 2040 ft | 140 kts | 50° |
| 2026-02-17 12:28 | 40.85757 | 14.22792 | 1809 ft | 140 kts | 53° |
| 2026-02-17 12:28 | 40.86246 | 14.23907 | 1500 ft | 141 kts | 60° |
| 2026-02-17 12:29 | 40.86699 | 14.25051 | 1171 ft | 139 kts | 56° |
| 2026-02-17 12:29 | 40.87220 | 14.26130 | 828 ft | 138 kts | 56° |
| 2026-02-17 12:29 | 40.87730 | 14.27201 | 569 ft | 137 kts | 56° |
| 2026-02-17 12:29 | 40.88230 | 14.28282 | 317 ft | 137 kts | 56° |
| 2026-02-17 12:30 | 40.88688 | 14.29257 | 263 ft | 106 kts | 57° |
| 2026-02-17 12:30 | 40.88949 | 14.29807 | 247 ft | 44 kts | 57° |
| 2026-02-17 12:30 | 40.89052 | 14.30025 | 240 ft | 16 kts | 58° |
| 2026-02-17 12:31 | 40.89043 | 14.30134 | 238 ft | 0 kts | 107° |
| 2026-02-17 12:31 | 40.89042 | 14.30135 | 238 ft | 1 kts | 113° |
| 2026-02-17 12:31 | 40.88999 | 14.30170 | 238 ft | 8 kts | 151° |
| 2026-02-17 12:31 | 40.88954 | 14.30176 | 239 ft | 5 kts | 211° |
| 2026-02-17 12:32 | 40.88938 | 14.30151 | 240 ft | 3 kts | 232° |
| 2026-02-17 12:32 | 40.88891 | 14.30069 | 243 ft | 19 kts | 232° |
| 2026-02-17 12:32 | 40.88794 | 14.29901 | 248 ft | 24 kts | 232° |
| 2026-02-17 12:32 | 40.88694 | 14.29731 | 254 ft | 23 kts | 231° |
| 2026-02-17 12:33 | 40.88597 | 14.29565 | 259 ft | 23 kts | 233° |
| 2026-02-17 12:33 | 40.88504 | 14.29401 | 263 ft | 22 kts | 233° |
| 2026-02-17 12:33 | 40.88412 | 14.29239 | 268 ft | 22 kts | 233° |
| 2026-02-17 12:33 | 40.88319 | 14.29078 | 272 ft | 22 kts | 231° |
| 2026-02-17 12:34 | 40.88227 | 14.28920 | 276 ft | 22 kts | 232° |
| 2026-02-17 12:34 | 40.88137 | 14.28763 | 280 ft | 21 kts | 232° |
| 2026-02-17 12:34 | 40.88048 | 14.28610 | 283 ft | 20 kts | 232° |
| 2026-02-17 12:35 | 40.87945 | 14.28393 | 288 ft | 10 kts | 267° |
| 2026-02-17 12:35 | 40.87902 | 14.28347 | 290 ft | 7 kts | 187° |
| 2026-02-17 12:35 | 40.87888 | 14.28345 | 290 ft | 0 kts | 187° |
| 2026-02-17 12:35 | 40.87874 | 14.28342 | 290 ft | 0 kts | 187° |